createdAt,value
2022-08-03T00:03:41.241Z,101713.44
2022-08-03T00:08:44.016Z,101718.72
2022-08-03T00:13:47.032Z,101714.03
2022-08-03T00:18:55.057Z,101702.94
2022-08-03T00:23:57.794Z,101703.78
2022-08-03T00:29:00.572Z,101691.25
2022-08-03T00:34:08.616Z,101686.00
2022-08-03T00:39:11.356Z,101679.62
2022-08-03T00:44:14.066Z,101673.47
2022-08-03T00:49:22.164Z,101677.91
2022-08-03T00:54:26.170Z,101679.78
2022-08-03T00:59:29.006Z,101674.47
2022-08-03T01:04:37.037Z,101664.25
2022-08-03T01:09:53.525Z,101656.50
2022-08-03T01:15:03.845Z,101650.44
2022-08-03T01:20:15.521Z,101654.91
2022-08-03T01:25:34.172Z,101657.97
2022-08-03T01:30:46.521Z,101644.94
2022-08-03T01:35:54.475Z,101647.44
2022-08-03T01:40:58.937Z,101650.22
2022-08-03T01:46:09.802Z,101647.44
2022-08-03T01:51:14.621Z,101649.38
2022-08-03T01:56:19.063Z,101640.44
2022-08-03T02:02:25.248Z,101641.22
2022-08-03T02:07:02.527Z,101637.66
2022-08-03T02:12:09.817Z,101632.59
2022-08-03T02:17:17.952Z,101631.50
2022-08-03T02:22:38.107Z,101629.59
2022-08-03T02:27:47.275Z,101619.59
2022-08-03T02:32:57.063Z,101625.97
2022-08-03T02:38:03.161Z,101616.81
2022-08-03T02:48:31.770Z,101608.59
2022-08-03T02:53:36.097Z,101615.19
2022-08-03T02:58:41.309Z,101607.16
2022-08-03T03:03:50.822Z,101620.75
2022-08-03T03:14:13.408Z,101610.53
2022-08-03T03:19:18.357Z,101607.41
2022-08-03T03:24:22.127Z,101608.50
2022-08-03T03:29:30.648Z,101609.87
2022-08-03T03:34:43.489Z,101612.41
2022-08-03T03:39:47.088Z,101614.34
2022-08-03T03:44:55.125Z,101605.72
2022-08-03T03:49:58.648Z,101612.41
2022-08-03T03:55:01.933Z,101604.91
2022-08-03T04:00:11.383Z,101605.72
2022-08-03T04:05:14.960Z,101610.19
2022-08-03T04:10:22.568Z,101602.97
2022-08-03T04:15:34.273Z,101615.16
2022-08-03T04:20:39.967Z,101614.88
2022-08-03T04:25:44.634Z,101615.16
2022-08-03T04:30:54.546Z,101614.88
2022-08-03T04:36:02.608Z,101620.19
2022-08-03T04:41:06.531Z,101616.03
2022-08-03T04:51:34.703Z,101606.75
2022-08-03T04:56:37.457Z,101609.47
2022-08-03T05:01:41.548Z,101621.13
2022-08-03T05:06:54.897Z,101616.16
2022-08-03T05:11:58.094Z,101629.19
2022-08-03T05:17:00.853Z,101629.19
2022-08-03T05:22:08.864Z,101633.09
2022-08-03T05:27:11.622Z,101633.16
2022-08-03T05:32:14.439Z,101629.13
2022-08-03T05:37:22.630Z,101632.00
2022-08-03T05:42:25.385Z,101623.50
2022-08-03T05:47:28.198Z,101619.44
2022-08-03T05:52:36.254Z,101621.22
2022-08-03T05:57:39.780Z,101627.91
2022-08-03T06:02:43.091Z,101625.81
2022-08-03T06:07:51.149Z,101627.50
2022-08-03T06:12:53.915Z,101629.19
2022-08-03T06:18:00.025Z,101619.50
2022-08-03T06:23:16.191Z,101622.53
2022-08-03T06:28:53.015Z,101628.59
2022-08-03T06:34:31.136Z,101629.38
2022-08-03T06:39:11.368Z,101619.25
2022-08-03T06:49:32.798Z,101617.47
2022-08-03T06:54:36.907Z,101627.91
2022-08-03T07:00:07.339Z,101623.19
2022-08-03T07:05:09.037Z,101618.62
2022-08-03T07:10:12.353Z,101614.62
2022-08-03T07:20:33.901Z,101607.44
2022-08-03T07:25:36.694Z,101615.12
2022-08-03T07:30:39.828Z,101612.31
2022-08-03T07:35:47.845Z,101607.19
2022-08-03T07:40:50.584Z,101599.19
2022-08-03T07:45:53.296Z,101603.84
2022-08-03T07:51:01.407Z,101596.03
2022-08-03T07:56:05.759Z,101596.97
2022-08-03T08:01:15.148Z,101602.16
2022-08-03T08:06:23.345Z,101589.25
2022-08-03T08:11:26.087Z,101602.31
2022-08-03T08:16:28.818Z,101593.28
2022-08-03T08:21:53.134Z,101588.53
2022-08-03T08:26:59.586Z,101592.66
2022-08-03T08:32:02.279Z,101593.28
2022-08-03T08:37:10.333Z,101587.91
2022-08-03T08:42:13.182Z,101587.47
2022-08-03T08:52:36.326Z,101579.63
2022-08-03T08:57:43.609Z,101589.00
2022-08-03T09:02:47.274Z,101583.56
2022-08-03T09:07:55.339Z,101584.00
2022-08-03T09:18:32.388Z,101589.59
2022-08-03T09:24:01.626Z,101589.41
2022-08-03T09:29:14.053Z,101574.81
2022-08-03T09:34:26.713Z,101576.69
2022-08-03T09:39:41.749Z,101574.19
2022-08-03T09:50:08.360Z,101565.47
2022-08-03T09:56:01.730Z,101564.69
2022-08-03T10:00:54.407Z,101558.06
2022-08-03T10:06:16.456Z,101558.97
2022-08-03T10:11:30.780Z,101557.09
2022-08-03T10:16:36.242Z,101554.16
2022-08-03T10:21:50.489Z,101553.50
2022-08-03T10:32:20.322Z,101556.81
2022-08-03T10:37:26.144Z,101540.66
2022-08-03T10:42:30.341Z,101540.69
2022-08-03T10:47:38.841Z,101524.69
2022-08-03T10:52:55.758Z,101526.78
2022-08-03T11:03:17.549Z,101515.06
2022-08-03T11:08:28.864Z,101495.88
2022-08-03T11:13:32.656Z,101512.34
2022-08-03T11:18:57.462Z,101510.00
2022-08-03T11:24:04.660Z,101500.88
2022-08-03T11:29:31.093Z,101502.03
2022-08-03T11:35:08.532Z,101502.00
2022-08-03T11:40:40.379Z,101501.44
2022-08-03T11:45:57.968Z,101499.25
2022-08-03T11:51:01.224Z,101501.50
2022-08-03T11:56:12.679Z,101493.59
2022-08-03T12:01:18.788Z,101496.22
2022-08-03T12:06:24.030Z,101491.72
2022-08-03T12:11:32.106Z,101490.50
2022-08-03T12:16:34.994Z,101486.91
2022-08-03T12:21:56.654Z,101487.81
2022-08-03T12:32:24.716Z,101472.47
2022-08-03T12:42:46.990Z,101470.38
2022-08-03T12:47:54.493Z,101470.72
2022-08-03T12:52:57.927Z,101464.19
2022-08-03T12:58:07.705Z,101473.22
2022-08-03T13:03:41.883Z,101462.72
2022-08-03T13:08:33.148Z,101469.06
2022-08-03T13:19:05.286Z,101460.09
2022-08-03T13:24:08.545Z,101459.09
2022-08-03T13:29:11.386Z,101465.41
2022-08-03T13:34:22.993Z,101456.00
2022-08-03T13:39:32.633Z,101449.44
2022-08-03T13:50:00.002Z,101445.47
2022-08-03T13:55:05.579Z,101444.22
2022-08-03T14:00:09.740Z,101443.47
2022-08-03T14:05:17.766Z,101444.78
2022-08-03T14:10:20.548Z,101438.69
2022-08-03T14:20:48.967Z,101432.38
2022-08-03T14:25:54.302Z,101432.34
2022-08-03T14:30:57.475Z,101427.97
2022-08-03T14:36:06.463Z,101430.44
2022-08-03T14:41:12.121Z,101426.44
2022-08-03T14:46:22.707Z,101432.97
2022-08-03T14:51:30.817Z,101420.69
2022-08-03T14:56:34.760Z,101421.09
2022-08-03T15:02:05.603Z,101418.72
2022-08-03T15:07:05.670Z,101417.16
2022-08-03T15:12:08.770Z,101409.38
2022-08-03T15:17:11.576Z,101396.44
2022-08-03T15:27:38.236Z,101392.91
2022-08-03T15:33:00.962Z,101392.06
2022-08-03T15:38:09.008Z,101388.44
2022-08-03T15:43:17.597Z,101377.22
2022-08-03T15:48:20.354Z,101388.31
2022-08-03T15:53:29.283Z,101387.94
2022-08-03T16:03:50.775Z,101382.97
2022-08-03T16:08:53.509Z,101375.09
2022-08-03T16:14:12.963Z,101374.19
2022-08-03T16:19:24.218Z,101374.97
2022-08-03T16:24:27.746Z,101373.28
2022-08-03T16:29:30.906Z,101379.72
2022-08-03T16:34:40.115Z,101375.00
2022-08-03T16:39:42.837Z,101375.94
2022-08-03T16:44:45.604Z,101395.50
2022-08-03T16:49:56.460Z,101392.56
2022-08-03T16:55:00.056Z,101397.44
2022-08-03T17:00:04.193Z,101391.00
2022-08-03T17:05:13.487Z,101393.56
2022-08-03T17:10:16.663Z,101397.72
2022-08-03T17:15:38.258Z,101407.53
2022-08-03T17:20:55.387Z,101408.34
2022-08-03T17:26:02.270Z,101413.50
2022-08-03T17:31:23.274Z,101421.19
2022-08-03T17:37:02.555Z,101421.03
2022-08-03T17:42:00.587Z,101430.44
2022-08-03T17:47:04.472Z,101432.75
2022-08-03T17:52:22.179Z,101422.34
2022-08-03T17:58:01.351Z,101437.06
2022-08-03T18:03:05.828Z,101439.59
2022-08-03T18:08:18.571Z,101450.66
2022-08-03T18:13:31.348Z,101456.87
2022-08-03T18:18:38.640Z,101452.09
2022-08-03T18:23:50.341Z,101446.25
2022-08-03T18:28:54.896Z,101454.13
2022-08-03T18:34:17.325Z,101461.53
2022-08-03T18:39:29.237Z,101465.38
2022-08-03T18:44:52.510Z,101470.81
2022-08-03T18:50:04.568Z,101475.56
2022-08-03T18:55:20.274Z,101478.81
2022-08-03T19:00:42.479Z,101478.56
2022-08-03T19:06:02.760Z,101487.87
2022-08-03T19:11:28.185Z,101485.59
2022-08-03T19:16:35.693Z,101495.34
2022-08-03T19:21:42.470Z,101497.13
2022-08-03T19:26:52.223Z,101495.06
2022-08-03T19:37:15.928Z,101489.06
2022-08-03T19:42:25.862Z,101497.28
2022-08-03T19:52:55.171Z,101489.50
2022-08-03T19:57:58.965Z,101486.66
2022-08-03T20:03:02.273Z,101495.41
2022-08-03T20:08:10.400Z,101493.28
2022-08-03T20:13:14.395Z,101496.59
2022-08-03T20:18:22.277Z,101496.50
2022-08-03T20:23:37.365Z,101497.81
2022-08-03T20:28:49.684Z,101490.78
2022-08-03T20:33:53.460Z,101489.31
2022-08-03T20:39:01.617Z,101500.81
2022-08-03T20:44:10.686Z,101502.75
2022-08-03T20:49:13.509Z,101497.75
2022-08-03T20:59:50.627Z,101495.00
2022-08-03T21:04:54.089Z,101495.84
2022-08-03T21:10:00.563Z,101501.87
2022-08-03T21:15:09.979Z,101495.69
2022-08-03T21:20:35.625Z,101499.03
2022-08-03T21:25:38.922Z,101494.09
2022-08-03T21:30:47.760Z,101493.78
2022-08-03T21:51:50.586Z,101490.03
2022-08-03T21:56:56.128Z,101493.78
2022-08-03T22:01:59.056Z,101489.16
2022-08-03T22:07:08.678Z,101501.53
2022-08-03T22:12:11.634Z,101489.56
2022-08-03T22:17:53.611Z,101504.13
2022-08-03T22:22:55.185Z,101501.47
2022-08-03T22:28:01.800Z,101497.06
2022-08-03T22:43:59.495Z,101500.03
2022-08-03T22:49:08.387Z,101498.78
2022-08-03T22:54:12.451Z,101506.34
2022-08-03T22:59:41.007Z,101501.09
2022-08-03T23:04:45.898Z,101501.94
2022-08-03T23:15:09.936Z,101515.31
2022-08-03T23:20:14.483Z,101512.59
2022-08-03T23:25:17.783Z,101515.41
2022-08-03T23:36:29.114Z,101509.59
2022-08-03T23:41:10.289Z,101506.31
2022-08-03T23:46:14.278Z,101520.22
2022-08-03T23:51:37.092Z,101520.78
2022-08-03T23:56:53.190Z,101518.56
